UAE81 OMDB-LFLL
Flight info
| Callsign | UAE81 |
|---|---|
| Flight time | N/A |
| Altitude | 40000 |
| Route | RIDAP M557 TUMAK L602 ALPET L718 DEBNI DCT SEVKU L718 KABAN UL718 ULSAB UG8 GEM UT32 BUK UL602 MAKOL DCT UTEKA DCT SMI DCT TUVAR DCT ROTAR DCT AKADO/N0484F410 DCT KOPER DCT TOP/N0464F240 DCT RONOP DCT GIGUS Z40 AMVAR |
| Aircraft | A359/H-SDE2E3GHIJ3J4J5LM1ORWXY/LB1D1 |
Departure
| Time | 2026-04-23 06:42 |
|---|---|
| Airport | Dubai International Airport (OMDB) |
Arrival
| Time | N/A |
|---|---|
| Airport | Lyon Saint-Exupéry Airport (LFLL) |
| Time | Latitude | Longitude | Altitude | Speed | Heading |
|---|---|---|---|---|---|
| 2026-04-23 06:27 | 25.24885 | 55.36298 | 30 ft | 0 kts | 211° |
| 2026-04-23 06:32 | 25.24883 | 55.36297 | 30 ft | 5 kts | 211° |
| 2026-04-23 06:32 | 25.24895 | 55.36305 | 28 ft | 4 kts | 211° |
| 2026-04-23 06:33 | 25.24918 | 55.36321 | 28 ft | 4 kts | 211° |
| 2026-04-23 06:33 | 25.24941 | 55.36335 | 24 ft | 4 kts | 194° |
| 2026-04-23 06:33 | 25.24966 | 55.36335 | 25 ft | 4 kts | 153° |
| 2026-04-23 06:33 | 25.24983 | 55.36319 | 26 ft | 1 kts | 122° |
| 2026-04-23 06:34 | 25.24996 | 55.36296 | 26 ft | 4 kts | 122° |
| 2026-04-23 06:34 | 25.25010 | 55.36272 | 27 ft | 2 kts | 122° |
| 2026-04-23 06:34 | 25.25004 | 55.36282 | 25 ft | 0 kts | 122° |
| 2026-04-23 06:36 | 25.25003 | 55.36283 | 25 ft | 1 kts | 122° |
| 2026-04-23 06:36 | 25.24988 | 55.36310 | 25 ft | 7 kts | 121° |
| 2026-04-23 06:36 | 25.24951 | 55.36376 | 26 ft | 13 kts | 122° |
| 2026-04-23 06:36 | 25.24897 | 55.36474 | 27 ft | 17 kts | 122° |
| 2026-04-23 06:37 | 25.24828 | 55.36597 | 27 ft | 16 kts | 121° |
| 2026-04-23 06:37 | 25.24785 | 55.36715 | 28 ft | 17 kts | 104° |
| 2026-04-23 06:37 | 25.24755 | 55.36839 | 28 ft | 16 kts | 115° |
| 2026-04-23 06:37 | 25.24740 | 55.36934 | 28 ft | 12 kts | 61° |
| 2026-04-23 06:38 | 25.24806 | 55.36980 | 28 ft | 11 kts | 30° |
| 2026-04-23 06:38 | 25.24875 | 55.37026 | 30 ft | 12 kts | 31° |
| 2026-04-23 06:38 | 25.24953 | 55.37078 | 30 ft | 14 kts | 31° |
| 2026-04-23 06:38 | 25.25039 | 55.37136 | 29 ft | 15 kts | 31° |
| 2026-04-23 06:39 | 25.25063 | 55.37196 | 29 ft | 9 kts | 99° |
| 2026-04-23 06:39 | 25.25029 | 55.37263 | 29 ft | 11 kts | 124° |
| 2026-04-23 06:39 | 25.24983 | 55.37343 | 30 ft | 13 kts | 121° |
| 2026-04-23 06:39 | 25.24929 | 55.37440 | 30 ft | 16 kts | 121° |
| 2026-04-23 06:40 | 25.24866 | 55.37553 | 29 ft | 18 kts | 123° |
| 2026-04-23 06:40 | 25.24796 | 55.37677 | 29 ft | 20 kts | 122° |
| 2026-04-23 06:40 | 25.24721 | 55.37811 | 29 ft | 21 kts | 122° |
| 2026-04-23 06:40 | 25.24665 | 55.37916 | 29 ft | 12 kts | 105° |
| 2026-04-23 06:41 | 25.24700 | 55.37976 | 29 ft | 9 kts | 36° |
| 2026-04-23 06:41 | 25.24755 | 55.38018 | 31 ft | 10 kts | 32° |
| 2026-04-23 06:41 | 25.24833 | 55.37980 | 31 ft | 32 kts | 304° |
| 2026-04-23 06:41 | 25.25072 | 55.37548 | 33 ft | 98 kts | 302° |
| 2026-04-23 06:42 | 25.25529 | 55.36722 | 29 ft | 153 kts | 302° |
| 2026-04-23 06:42 | 25.26138 | 55.35618 | 383 ft | 170 kts | 301° |
| 2026-04-23 06:42 | 25.26723 | 55.34515 | 1050 ft | 167 kts | 301° |
| 2026-04-23 06:42 | 25.27371 | 55.33354 | 1395 ft | 191 kts | 300° |
| 2026-04-23 06:43 | 25.28125 | 55.32009 | 1680 ft | 220 kts | 300° |
| 2026-04-23 06:43 | 25.28956 | 55.30524 | 2134 ft | 232 kts | 301° |
| 2026-04-23 06:43 | 25.29823 | 55.28984 | 2757 ft | 238 kts | 301° |
| 2026-04-23 06:43 | 25.30752 | 55.27479 | 3422 ft | 240 kts | 305° |
| 2026-04-23 06:44 | 25.31728 | 55.25979 | 4059 ft | 241 kts | 306° |
| 2026-04-23 06:44 | 25.32707 | 55.24470 | 4678 ft | 242 kts | 305° |
| 2026-04-23 06:44 | 25.33695 | 55.22949 | 5269 ft | 244 kts | 304° |
| 2026-04-23 06:44 | 25.34682 | 55.21412 | 5863 ft | 245 kts | 303° |
| 2026-04-23 06:45 | 25.35557 | 55.19795 | 6410 ft | 246 kts | 289° |
| 2026-04-23 06:45 | 25.35857 | 55.17927 | 6800 ft | 254 kts | 269° |
| 2026-04-23 06:45 | 25.35816 | 55.15910 | 7065 ft | 270 kts | 265° |
| 2026-04-23 06:45 | 25.35714 | 55.13812 | 7588 ft | 275 kts | 265° |
| 2026-04-23 06:46 | 25.35619 | 55.11700 | 8275 ft | 275 kts | 266° |
| 2026-04-23 06:46 | 25.35532 | 55.09595 | 8993 ft | 274 kts | 266° |
| 2026-04-23 06:46 | 25.35451 | 55.07515 | 9739 ft | 273 kts | 266° |
| 2026-04-23 06:46 | 25.35371 | 55.05406 | 10337 ft | 278 kts | 265° |
| 2026-04-23 06:47 | 25.35290 | 55.03242 | 10862 ft | 285 kts | 265° |
| 2026-04-23 06:47 | 25.35208 | 55.01031 | 11447 ft | 289 kts | 265° |
| 2026-04-23 06:47 | 25.35126 | 54.98796 | 12064 ft | 293 kts | 265° |
| 2026-04-23 06:47 | 25.35043 | 54.96530 | 12692 ft | 296 kts | 265° |
| 2026-04-23 06:48 | 25.34959 | 54.94245 | 13314 ft | 300 kts | 265° |
| 2026-04-23 06:48 | 25.34902 | 54.91922 | 13893 ft | 305 kts | 268° |
| 2026-04-23 06:48 | 25.35203 | 54.89582 | 14471 ft | 311 kts | 281° |
| 2026-04-23 06:48 | 25.35819 | 54.87279 | 15087 ft | 314 kts | 284° |
| 2026-04-23 06:49 | 25.36491 | 54.84968 | 15693 ft | 317 kts | 284° |
| 2026-04-23 06:49 | 25.37163 | 54.82665 | 16322 ft | 319 kts | 284° |
| 2026-04-23 06:49 | 25.37850 | 54.80285 | 16693 ft | 331 kts | 284° |
| 2026-04-23 06:49 | 25.38559 | 54.77809 | 16913 ft | 345 kts | 284° |
| 2026-04-23 06:50 | 25.39298 | 54.75224 | 17150 ft | 359 kts | 284° |
| 2026-04-23 06:50 | 25.40067 | 54.72536 | 17375 ft | 372 kts | 284° |
| 2026-04-23 06:50 | 25.40864 | 54.69762 | 17584 ft | 384 kts | 284° |
| 2026-04-23 06:50 | 25.41681 | 54.66902 | 17828 ft | 394 kts | 284° |
| 2026-04-23 06:51 | 25.42510 | 54.63987 | 18215 ft | 399 kts | 284° |
| 2026-04-23 06:51 | 25.43347 | 54.61048 | 18631 ft | 402 kts | 285° |
| 2026-04-23 06:51 | 25.44205 | 54.58098 | 19073 ft | 404 kts | 285° |
| 2026-04-23 06:51 | 25.45070 | 54.55177 | 19515 ft | 406 kts | 285° |
| 2026-04-23 06:52 | 25.45957 | 54.52203 | 19947 ft | 408 kts | 285° |
| 2026-04-23 06:52 | 25.46851 | 54.49203 | 20401 ft | 411 kts | 285° |
| 2026-04-23 06:52 | 25.47744 | 54.46199 | 20880 ft | 412 kts | 285° |
| 2026-04-23 06:52 | 25.48641 | 54.43172 | 21308 ft | 414 kts | 285° |
| 2026-04-23 06:53 | 25.49538 | 54.40136 | 21740 ft | 416 kts | 285° |
| 2026-04-23 06:53 | 25.50437 | 54.37086 | 22235 ft | 416 kts | 285° |
| 2026-04-23 06:53 | 25.51336 | 54.34036 | 22748 ft | 417 kts | 285° |
| 2026-04-23 06:53 | 25.52235 | 54.30976 | 23159 ft | 419 kts | 285° |
| 2026-04-23 06:54 | 25.53140 | 54.27892 | 23551 ft | 422 kts | 285° |
| 2026-04-23 06:54 | 25.54049 | 54.24795 | 23902 ft | 425 kts | 285° |
| 2026-04-23 06:54 | 25.54966 | 54.21680 | 24299 ft | 426 kts | 285° |
| 2026-04-23 06:54 | 25.55884 | 54.18559 | 24698 ft | 428 kts | 285° |
| 2026-04-23 06:55 | 25.56805 | 54.15416 | 25104 ft | 430 kts | 285° |
| 2026-04-23 06:55 | 25.57730 | 54.12258 | 25530 ft | 432 kts | 285° |
| 2026-04-23 06:55 | 25.58647 | 54.09119 | 25934 ft | 434 kts | 285° |
| 2026-04-23 06:55 | 25.59581 | 54.05928 | 26343 ft | 437 kts | 286° |
| 2026-04-23 06:56 | 25.60514 | 54.02709 | 26762 ft | 439 kts | 285° |
| 2026-04-23 06:56 | 25.61436 | 53.99477 | 27174 ft | 441 kts | 285° |
| 2026-04-23 06:56 | 25.62354 | 53.96239 | 27755 ft | 439 kts | 285° |
| 2026-04-23 06:56 | 25.63270 | 53.93006 | 28194 ft | 442 kts | 285° |
| 2026-04-23 06:57 | 25.64195 | 53.89736 | 28426 ft | 447 kts | 285° |
| 2026-04-23 06:57 | 25.65132 | 53.86429 | 28805 ft | 450 kts | 285° |
| 2026-04-23 06:57 | 25.66074 | 53.83110 | 29215 ft | 451 kts | 285° |
| 2026-04-23 06:57 | 25.67005 | 53.79828 | 29578 ft | 454 kts | 285° |
| 2026-04-23 06:58 | 25.67954 | 53.76482 | 29922 ft | 456 kts | 286° |
| 2026-04-23 06:58 | 25.68908 | 53.73119 | 30257 ft | 456 kts | 286° |
| 2026-04-23 06:58 | 25.69858 | 53.69773 | 30734 ft | 454 kts | 286° |
| 2026-04-23 06:58 | 25.70801 | 53.66432 | 31046 ft | 455 kts | 285° |
| 2026-04-23 06:59 | 25.71743 | 53.63073 | 31305 ft | 457 kts | 285° |
| 2026-04-23 06:59 | 25.72687 | 53.59702 | 31600 ft | 457 kts | 285° |
| 2026-04-23 06:59 | 25.73626 | 53.56346 | 32030 ft | 454 kts | 285° |
| 2026-04-23 06:59 | 25.74561 | 53.53008 | 32477 ft | 452 kts | 285° |
| 2026-04-23 07:00 | 25.75491 | 53.49687 | 32920 ft | 449 kts | 285° |
| 2026-04-23 07:00 | 25.76422 | 53.46372 | 33192 ft | 450 kts | 285° |
| 2026-04-23 07:00 | 25.77352 | 53.43056 | 33526 ft | 449 kts | 285° |
| 2026-04-23 07:00 | 25.78279 | 53.39752 | 33933 ft | 447 kts | 285° |
| 2026-04-23 07:01 | 25.79199 | 53.36469 | 34306 ft | 443 kts | 285° |
| 2026-04-23 07:01 | 25.80111 | 53.33215 | 34682 ft | 440 kts | 285° |
| 2026-04-23 07:01 | 25.81003 | 53.30025 | 35044 ft | 437 kts | 285° |
| 2026-04-23 07:01 | 25.81902 | 53.26807 | 35386 ft | 435 kts | 285° |
| 2026-04-23 07:02 | 25.82795 | 53.23606 | 35742 ft | 431 kts | 285° |
| 2026-04-23 07:02 | 25.83683 | 53.20443 | 36160 ft | 427 kts | 286° |
| 2026-04-23 07:02 | 25.84745 | 53.17366 | 36465 ft | 426 kts | 290° |
| 2026-04-23 07:02 | 25.85916 | 53.14344 | 36701 ft | 426 kts | 291° |
| 2026-04-23 07:03 | 25.87118 | 53.11335 | 36931 ft | 426 kts | 291° |
| 2026-04-23 07:03 | 25.88337 | 53.08337 | 37174 ft | 424 kts | 291° |
| 2026-04-23 07:03 | 25.89559 | 53.05353 | 37448 ft | 423 kts | 291° |
| 2026-04-23 07:03 | 25.90764 | 53.02409 | 37702 ft | 421 kts | 291° |
| 2026-04-23 07:04 | 25.91971 | 52.99455 | 37968 ft | 419 kts | 291° |
| 2026-04-23 07:04 | 25.93170 | 52.96514 | 38333 ft | 415 kts | 291° |
| 2026-04-23 07:04 | 25.94357 | 52.93597 | 38573 ft | 413 kts | 291° |
| 2026-04-23 07:04 | 25.95539 | 52.90682 | 38692 ft | 414 kts | 291° |
| 2026-04-23 07:05 | 25.97902 | 52.84841 | 38863 ft | 415 kts | 291° |
| 2026-04-23 07:05 | 26.00271 | 52.78980 | 39054 ft | 415 kts | 291° |
| 2026-04-23 07:06 | 26.01455 | 52.76050 | 39176 ft | 415 kts | 291° |
| 2026-04-23 07:06 | 26.02628 | 52.73174 | 39384 ft | 413 kts | 292° |
| 2026-04-23 07:06 | 26.05187 | 52.67427 | 39540 ft | 415 kts | 294° |
| 2026-04-23 07:07 | 26.06507 | 52.64567 | 39643 ft | 415 kts | 294° |
| 2026-04-23 07:07 | 26.07379 | 52.62676 | 39699 ft | 415 kts | 294° |
| 2026-04-23 07:07 | 26.10421 | 52.56007 | 39887 ft | 415 kts | 293° |
| 2026-04-23 07:08 | 26.12603 | 52.51177 | 39891 ft | 416 kts | 293° |
| 2026-04-23 07:08 | 26.15199 | 52.45421 | 39895 ft | 415 kts | 293° |
| 2026-04-23 07:09 | 26.17764 | 52.39717 | 39903 ft | 415 kts | 293° |
| 2026-04-23 07:09 | 26.20351 | 52.33962 | 39894 ft | 414 kts | 293° |
| 2026-04-23 07:10 | 26.22922 | 52.28229 | 39905 ft | 414 kts | 293° |
| 2026-04-23 07:10 | 26.25423 | 52.22466 | 39903 ft | 412 kts | 292° |
| 2026-04-23 07:11 | 26.27893 | 52.16703 | 39900 ft | 412 kts | 292° |
| 2026-04-23 07:12 | 26.31615 | 52.08057 | 39917 ft | 412 kts | 292° |
| 2026-04-23 07:12 | 26.34077 | 52.02359 | 39905 ft | 410 kts | 292° |
| 2026-04-23 07:13 | 26.36558 | 51.96618 | 39905 ft | 411 kts | 292° |
| 2026-04-23 07:13 | 26.38734 | 51.90754 | 39902 ft | 409 kts | 288° |
| 2026-04-23 07:14 | 26.40752 | 51.84818 | 39905 ft | 409 kts | 288° |
| 2026-04-23 07:14 | 26.42747 | 51.78871 | 39903 ft | 409 kts | 288° |
| 2026-04-23 07:15 | 26.44721 | 51.72951 | 39925 ft | 409 kts | 288° |
| 2026-04-23 07:15 | 26.46706 | 51.67011 | 39907 ft | 408 kts | 288° |
| 2026-04-23 07:16 | 26.48694 | 51.61078 | 39906 ft | 408 kts | 288° |
| 2026-04-23 07:16 | 26.50673 | 51.55126 | 39906 ft | 408 kts | 288° |
| 2026-04-23 07:17 | 26.52643 | 51.49185 | 39914 ft | 408 kts | 288° |
| 2026-04-23 07:17 | 26.54616 | 51.43234 | 39910 ft | 408 kts | 288° |
| 2026-04-23 07:18 | 26.56586 | 51.37288 | 39927 ft | 408 kts | 288° |
| 2026-04-23 07:18 | 26.58543 | 51.31378 | 39904 ft | 408 kts | 287° |
| 2026-04-23 07:19 | 26.60510 | 51.25433 | 39901 ft | 408 kts | 287° |
| 2026-04-23 07:19 | 26.62478 | 51.19490 | 39921 ft | 407 kts | 287° |
| 2026-04-23 07:20 | 26.64446 | 51.13540 | 39917 ft | 407 kts | 287° |
| 2026-04-23 07:20 | 26.66409 | 51.07593 | 39909 ft | 408 kts | 287° |
| 2026-04-23 07:21 | 26.68372 | 51.01638 | 39912 ft | 408 kts | 287° |
| 2026-04-23 07:21 | 26.70296 | 50.95720 | 39914 ft | 407 kts | 287° |
| 2026-04-23 07:22 | 26.72200 | 50.89740 | 39916 ft | 407 kts | 286° |
| 2026-04-23 07:22 | 26.74099 | 50.83768 | 39920 ft | 407 kts | 286° |
| 2026-04-23 07:23 | 26.76002 | 50.77797 | 39930 ft | 407 kts | 286° |
| 2026-04-23 07:23 | 26.77904 | 50.71825 | 39930 ft | 407 kts | 286° |
| 2026-04-23 07:24 | 26.80078 | 50.65947 | 39933 ft | 412 kts | 294° |
| 2026-04-23 07:24 | 26.83352 | 50.60617 | 39938 ft | 418 kts | 301° |
| 2026-04-23 07:25 | 26.86994 | 50.55560 | 39946 ft | 420 kts | 303° |
| 2026-04-23 07:25 | 26.90718 | 50.50509 | 39952 ft | 420 kts | 303° |
| 2026-04-23 07:26 | 26.94543 | 50.45524 | 39955 ft | 423 kts | 306° |
| 2026-04-23 07:26 | 26.98643 | 50.40757 | 39961 ft | 424 kts | 307° |
| 2026-04-23 07:27 | 27.02722 | 50.36044 | 39957 ft | 423 kts | 306° |
| 2026-04-23 07:27 | 27.06784 | 50.31259 | 39960 ft | 422 kts | 306° |
| 2026-04-23 07:28 | 27.10783 | 50.26434 | 39963 ft | 422 kts | 305° |
| 2026-04-23 07:28 | 27.14780 | 50.21605 | 39966 ft | 424 kts | 307° |
| 2026-04-23 07:29 | 27.19348 | 50.17294 | 39961 ft | 431 kts | 314° |
| 2026-04-23 07:29 | 27.24148 | 50.13276 | 39965 ft | 433 kts | 315° |
| 2026-04-23 07:30 | 27.29028 | 50.09274 | 39966 ft | 433 kts | 315° |
| 2026-04-23 07:30 | 27.33898 | 50.05272 | 39966 ft | 433 kts | 315° |
| 2026-04-23 07:31 | 27.38712 | 50.01261 | 39969 ft | 432 kts | 314° |
| 2026-04-23 07:31 | 27.43435 | 49.97092 | 39966 ft | 431 kts | 313° |
| 2026-04-23 07:32 | 27.48140 | 49.92890 | 39968 ft | 432 kts | 313° |
| 2026-04-23 07:32 | 27.52872 | 49.88695 | 39966 ft | 433 kts | 313° |
| 2026-04-23 07:33 | 27.57613 | 49.84513 | 39967 ft | 433 kts | 313° |
| 2026-04-23 07:33 | 27.62352 | 49.80333 | 39969 ft | 433 kts | 313° |
| 2026-04-23 07:34 | 27.67094 | 49.76144 | 39987 ft | 433 kts | 313° |
| 2026-04-23 07:34 | 27.71841 | 49.71946 | 39971 ft | 433 kts | 313° |
| 2026-04-23 07:35 | 27.76562 | 49.67763 | 39975 ft | 434 kts | 313° |
| 2026-04-23 07:35 | 27.81311 | 49.63552 | 39971 ft | 434 kts | 313° |
| 2026-04-23 07:36 | 27.86046 | 49.59320 | 39967 ft | 433 kts | 313° |
| 2026-04-23 07:36 | 27.90777 | 49.55085 | 39977 ft | 434 kts | 313° |
| 2026-04-23 07:37 | 27.95507 | 49.50850 | 39977 ft | 434 kts | 313° |
| 2026-04-23 07:37 | 28.00246 | 49.46604 | 39960 ft | 434 kts | 313° |
| 2026-04-23 07:38 | 28.04951 | 49.42384 | 39970 ft | 433 kts | 312° |
| 2026-04-23 07:38 | 28.09637 | 49.38112 | 39970 ft | 432 kts | 311° |
| 2026-04-23 07:39 | 28.14301 | 49.33835 | 39970 ft | 432 kts | 311° |
| 2026-04-23 07:39 | 28.18975 | 49.29554 | 39981 ft | 432 kts | 312° |
| 2026-04-23 07:40 | 28.23654 | 49.25270 | 39969 ft | 433 kts | 312° |
| 2026-04-23 07:40 | 28.28348 | 49.20974 | 39968 ft | 433 kts | 312° |
| 2026-04-23 07:41 | 28.33035 | 49.16680 | 39971 ft | 433 kts | 312° |
| 2026-04-23 07:41 | 28.37722 | 49.12376 | 39973 ft | 433 kts | 312° |
| 2026-04-23 07:42 | 28.42606 | 49.08345 | 39970 ft | 438 kts | 316° |
| 2026-04-23 07:42 | 28.47654 | 49.04447 | 39968 ft | 440 kts | 316° |
| 2026-04-23 07:43 | 28.52736 | 49.00563 | 39981 ft | 440 kts | 316° |
| 2026-04-23 07:43 | 28.57827 | 48.96665 | 39963 ft | 440 kts | 316° |
| 2026-04-23 07:44 | 28.62911 | 48.92761 | 39963 ft | 440 kts | 316° |
| 2026-04-23 07:44 | 28.67987 | 48.88854 | 39963 ft | 440 kts | 316° |
| 2026-04-23 07:45 | 28.73040 | 48.84960 | 39959 ft | 442 kts | 316° |
| 2026-04-23 07:45 | 28.78138 | 48.81023 | 39962 ft | 443 kts | 316° |
| 2026-04-23 07:46 | 28.83260 | 48.77077 | 39962 ft | 443 kts | 316° |
| 2026-04-23 07:46 | 28.88393 | 48.73148 | 39981 ft | 444 kts | 316° |
| 2026-04-23 07:47 | 28.93509 | 48.69230 | 39960 ft | 446 kts | 316° |
| 2026-04-23 07:47 | 28.98666 | 48.65274 | 39965 ft | 446 kts | 316° |
| 2026-04-23 07:48 | 29.03828 | 48.61308 | 39961 ft | 446 kts | 316° |
| 2026-04-23 07:48 | 29.08973 | 48.57349 | 39963 ft | 446 kts | 316° |
| 2026-04-23 07:49 | 29.14119 | 48.53383 | 39964 ft | 446 kts | 316° |
| 2026-04-23 07:49 | 29.19265 | 48.49412 | 39963 ft | 446 kts | 316° |
| 2026-04-23 07:50 | 29.24382 | 48.45459 | 39970 ft | 446 kts | 316° |
| 2026-04-23 07:50 | 29.29529 | 48.41477 | 39956 ft | 446 kts | 316° |
| 2026-04-23 07:51 | 29.34673 | 48.37494 | 39967 ft | 446 kts | 316° |
| 2026-04-23 07:51 | 29.39809 | 48.33512 | 39968 ft | 446 kts | 316° |
| 2026-04-23 07:52 | 29.44973 | 48.29520 | 39967 ft | 448 kts | 318° |